Time;durP1;ratioP1;P1;durP2;ratioP2;P2;SDS_P1;SDS_P2;PMS_P1;PMS_P2;Temp;Humidity;BMP_temperature;BMP_pressure;BME280_temperature;BME280_humidity;BME280_pressure;Samples;Min_cycle;Max_cycle;Signal;HPM_P1;HPM_P2
2023/07/31 00:01:14;;;;;;;2.40;1.50;;;;;;;17.30;100.00;100288.00;5013997;28;20219;-76
2023/07/31 00:03:39;;;;;;;2.30;1.70;;;;;;;17.30;100.00;100289.75;5012441;28;20274;-76
2023/07/31 00:06:04;;;;;;;1.80;1.50;;;;;;;17.29;100.00;100293.28;5012132;28;20227;-76
2023/07/31 00:08:29;;;;;;;2.00;1.30;;;;;;;17.27;100.00;100298.56;5013330;28;20210;-76
2023/07/31 00:10:55;;;;;;;1.97;1.50;;;;;;;17.25;100.00;100297.78;5014476;28;20684;-75
2023/07/31 00:13:20;;;;;;;2.87;1.50;;;;;;;17.22;100.00;100292.66;5011245;28;20188;-76
2023/07/31 00:15:46;;;;;;;2.27;1.47;;;;;;;17.19;100.00;100298.84;5014601;28;20196;-75
2023/07/31 00:18:11;;;;;;;3.03;1.70;;;;;;;17.16;100.00;100298.13;5012268;28;20185;-75
2023/07/31 00:20:36;;;;;;;2.60;2.00;;;;;;;17.11;100.00;100295.66;5012718;28;20182;-76
2023/07/31 00:23:01;;;;;;;3.07;1.90;;;;;;;17.08;100.00;100287.06;5010570;28;20210;-75
2023/07/31 00:25:27;;;;;;;2.17;1.90;;;;;;;17.05;100.00;100283.66;5011929;28;20184;-76
2023/07/31 00:27:52;;;;;;;3.53;2.03;;;;;;;17.01;100.00;100271.63;5011473;28;20633;-76
2023/07/31 00:30:17;;;;;;;3.00;1.60;;;;;;;16.99;100.00;100281.28;5012969;28;20194;-76
2023/07/31 00:32:43;;;;;;;3.53;2.10;;;;;;;16.97;100.00;100266.53;5013091;28;20219;-77
2023/07/31 00:35:08;;;;;;;2.80;1.87;;;;;;;16.92;100.00;100269.28;5015379;28;20234;-76
2023/07/31 00:37:33;;;;;;;4.07;1.90;;;;;;;16.91;100.00;100272.81;5013115;28;20188;-75
2023/07/31 00:39:58;;;;;;;2.80;1.87;;;;;;;16.88;100.00;100272.91;5012883;28;20279;-75
2023/07/31 00:42:24;;;;;;;2.70;1.70;;;;;;;16.84;100.00;100274.78;5015357;28;20212;-75
2023/07/31 00:44:50;;;;;;;2.37;1.60;;;;;;;16.84;100.00;100277.41;5013784;28;20679;-75
2023/07/31 00:47:15;;;;;;;2.87;1.80;;;;;;;16.83;100.00;100269.63;5011905;28;20187;-75
2023/07/31 00:49:41;;;;;;;2.97;2.13;;;;;;;16.80;100.00;100267.13;5014512;28;20191;-75
2023/07/31 00:52:07;;;;;;;2.43;1.90;;;;;;;16.77;100.00;100270.69;5012489;28;20204;-75
2023/07/31 00:54:33;;;;;;;2.33;1.83;;;;;;;16.72;100.00;100260.38;5017528;28;20197;-75
2023/07/31 00:56:59;;;;;;;3.20;2.20;;;;;;;16.71;100.00;100258.66;5013426;28;20267;-75
2023/07/31 00:59:25;;;;;;;2.93;1.73;;;;;;;16.70;100.00;100253.50;5029134;28;20218;-74
2023/07/31 01:01:50;;;;;;;2.93;1.97;;;;;;;16.69;100.00;100259.66;5027521;28;20225;-76
2023/07/31 01:04:17;;;;;;;2.83;1.77;;;;;;;16.66;100.00;100260.63;5015152;28;20224;-75
2023/07/31 01:07:01;;;;;;;3.27;1.97;;;;;;;16.65;100.00;100258.03;5014464;28;20208;-74
2023/07/31 01:09:32;;;;;;;3.30;1.63;;;;;;;16.63;100.00;100252.88;5016316;28;20187;-75
2023/07/31 01:12:03;;;;;;;2.47;2.07;;;;;;;16.62;100.00;100248.56;5012215;28;20196;-75
2023/07/31 01:14:28;;;;;;;3.40;1.90;;;;;;;16.59;100.00;100243.44;5010402;28;20781;-75
2023/07/31 01:16:54;;;;;;;3.00;2.27;;;;;;;16.60;100.00;100242.53;5015087;28;20195;-74
2023/07/31 01:19:24;;;;;;;3.03;2.23;;;;;;;16.59;100.00;100240.81;5018016;28;20267;-74
2023/07/31 01:22:07;;;;;;;2.73;2.00;;;;;;;16.59;100.00;100240.81;5022052;28;20211;-75
2023/07/31 01:24:49;;;;;;;2.93;1.87;;;;;;;16.60;100.00;100243.41;5009556;28;20258;-75
2023/07/31 01:27:17;;;;;;;3.67;2.10;;;;;;;16.59;100.00;100238.19;5009546;28;20188;-75
2023/07/31 01:30:14;;;;;;;2.87;2.23;;;;;;;16.58;100.00;100241.72;5015049;28;20197;-76
2023/07/31 01:32:42;;;;;;;3.07;1.70;;;;;;;16.57;100.00;100243.50;5009350;28;20966;-75
2023/07/31 01:35:08;;;;;;;2.30;1.93;;;;;;;16.57;100.00;100240.00;5013121;28;20183;-75
2023/07/31 01:37:33;;;;;;;4.63;2.37;;;;;;;16.57;100.00;100240.88;5015639;28;20278;-75
2023/07/31 01:39:59;;;;;;;3.87;2.00;;;;;;;16.57;100.00;100233.03;5009619;28;20190;-76
2023/07/31 01:42:24;;;;;;;3.63;1.70;;;;;;;16.57;100.00;100229.56;5008970;28;20562;-76
2023/07/31 01:44:49;;;;;;;2.47;2.00;;;;;;;16.58;100.00;100223.44;5010228;28;20605;-75
2023/07/31 01:47:15;;;;;;;2.17;1.90;;;;;;;16.57;100.00;100222.59;5010670;28;20674;-75
2023/07/31 01:49:40;;;;;;;1.93;1.47;;;;;;;16.58;100.00;100228.66;5012625;28;20770;-75
2023/07/31 01:52:06;;;;;;;2.97;1.80;;;;;;;16.59;100.00;100220.78;5007143;28;20197;-75
2023/07/31 01:54:31;;;;;;;1.93;1.60;;;;;;;16.57;100.00;100214.75;5010084;28;20190;-75
2023/07/31 01:56:56;;;;;;;2.87;2.00;;;;;;;16.55;100.00;100215.72;5006936;28;20953;-74
2023/07/31 01:59:22;;;;;;;2.23;1.67;;;;;;;16.53;100.00;100213.16;5012041;28;20771;-75
2023/07/31 02:01:47;;;;;;;4.33;2.03;;;;;;;16.52;100.00;100205.38;5007915;28;20696;-75
2023/07/31 02:04:12;;;;;;;2.57;2.00;;;;;;;16.51;100.00;100199.28;5013422;28;20209;-75
2023/07/31 02:06:41;;;;;;;5.93;2.37;;;;;;;16.50;100.00;100200.19;5007227;28;20191;-75
2023/07/31 02:09:06;;;;;;;3.73;1.97;;;;;;;16.48;100.00;100196.81;5011025;28;20275;-75
2023/07/31 02:11:32;;;;;;;2.70;1.90;;;;;;;16.46;100.00;100196.84;5011070;28;21028;-75
2023/07/31 02:13:57;;;;;;;2.90;1.93;;;;;;;16.47;100.00;100200.31;5010225;28;20246;-75
2023/07/31 02:16:22;;;;;;;1.80;1.70;;;;;;;16.46;100.00;100204.69;5011954;28;20657;-75
2023/07/31 02:18:48;;;;;;;2.43;1.80;;;;;;;16.46;100.00;100196.00;5008264;28;20194;-75
2023/07/31 02:21:13;;;;;;;3.40;1.90;;;;;;;16.46;100.00;100191.63;5012046;28;20702;-75
2023/07/31 02:23:38;;;;;;;3.27;1.77;;;;;;;16.45;100.00;100189.06;5011324;28;20200;-75
2023/07/31 02:26:04;;;;;;;4.40;2.00;;;;;;;16.43;100.00;100189.09;5010581;28;20188;-75
2023/07/31 02:28:29;;;;;;;3.47;2.03;;;;;;;16.43;100.00;100189.09;5009898;28;20194;-75
2023/07/31 02:30:55;;;;;;;3.63;1.97;;;;;;;16.42;100.00;100184.78;5011077;28;20742;-76
2023/07/31 02:33:20;;;;;;;2.33;2.10;;;;;;;16.43;100.00;100177.81;5009511;28;20192;-75
2023/07/31 02:35:46;;;;;;;3.83;2.40;;;;;;;16.42;100.00;100173.50;5009859;28;20184;-75
2023/07/31 02:38:11;;;;;;;3.13;2.30;;;;;;;16.41;100.00;100174.41;5009508;28;21097;-76
2023/07/31 02:40:36;;;;;;;3.73;1.90;;;;;;;16.39;100.00;100171.00;5007146;28;20188;-75
2023/07/31 02:43:02;;;;;;;3.83;2.70;;;;;;;16.39;100.00;100168.38;5014447;28;20199;-75
2023/07/31 02:45:27;;;;;;;4.53;2.27;;;;;;;16.38;100.00;100171.91;5012482;28;20192;-75
2023/07/31 02:47:52;;;;;;;2.53;1.83;;;;;;;16.37;100.00;100181.50;5012547;28;21006;-75
2023/07/31 02:50:18;;;;;;;2.90;1.50;;;;;;;16.38;100.00;100182.34;5008914;28;20199;-75
2023/07/31 02:52:43;;;;;;;2.10;1.53;;;;;;;16.38;100.00;100178.00;5013173;28;20211;-75
2023/07/31 02:55:11;;;;;;;2.40;1.50;;;;;;;16.40;100.00;100181.41;5006298;28;20184;-75
2023/07/31 02:57:36;;;;;;;3.03;1.57;;;;;;;16.44;100.00;100175.13;5014740;28;20187;-74
2023/07/31 03:00:05;;;;;;;2.63;1.73;;;;;;;16.48;100.00;100178.53;5027199;28;20199;-75
2023/07/31 03:02:31;;;;;;;2.17;1.90;;;;;;;16.51;100.00;100180.16;5013816;28;20228;-75
2023/07/31 03:04:59;;;;;;;2.40;1.70;;;;;;;16.51;100.00;100167.94;5016754;28;20637;-76
2023/07/31 03:07:24;;;;;;;4.23;1.97;;;;;;;16.54;100.00;100175.69;5008930;28;20190;-74
2023/07/31 03:09:50;;;;;;;2.23;1.87;;;;;;;16.56;100.00;100186.94;5011172;28;20659;-75
2023/07/31 03:12:19;;;;;;;4.00;2.20;;;;;;;16.58;100.00;100182.50;5006849;28;20211;-76
2023/07/31 03:14:44;;;;;;;2.00;1.80;;;;;;;16.60;100.00;100188.53;5007262;28;20178;-75
2023/07/31 03:17:12;;;;;;;2.40;1.63;;;;;;;16.64;100.00;100183.19;5011474;28;20222;-75
2023/07/31 03:19:38;;;;;;;2.37;1.50;;;;;;;16.66;100.00;100184.84;5011882;28;20187;-75
2023/07/31 03:22:03;;;;;;;1.83;1.70;;;;;;;16.69;100.00;100183.88;5010142;28;20215;-75
2023/07/31 03:24:29;;;;;;;1.60;1.50;;;;;;;16.70;100.00;100183.84;5008688;28;20199;-75
2023/07/31 03:26:54;;;;;;;2.37;1.60;;;;;;;16.70;100.00;100168.16;5012406;28;20188;-77
2023/07/31 03:29:20;;;;;;;4.13;1.93;;;;;;;16.69;100.00;100176.91;5016262;28;20199;-77
2023/07/31 03:31:45;;;;;;;2.70;1.80;;;;;;;16.67;100.00;100176.09;5013481;28;20214;-76
2023/07/31 03:34:10;;;;;;;2.67;2.07;;;;;;;16.64;100.00;100176.19;5013310;28;20221;-75
2023/07/31 03:36:36;;;;;;;3.30;2.00;;;;;;;16.61;100.00;100171.94;5014057;28;20189;-76
2023/07/31 03:39:01;;;;;;;5.03;2.23;;;;;;;16.58;100.00;100174.66;5016898;28;20239;-76
2023/07/31 03:41:26;;;;;;;3.30;1.87;;;;;;;16.58;100.00;100181.63;5015742;28;20291;-75
2023/07/31 03:43:52;;;;;;;2.07;1.77;;;;;;;16.56;100.00;100184.31;5012750;28;20224;-75
2023/07/31 03:46:17;;;;;;;2.20;1.73;;;;;;;16.55;100.00;100177.38;5013135;28;20213;-75
2023/07/31 03:48:43;;;;;;;3.17;1.80;;;;;;;16.55;100.00;100174.78;5012588;28;20273;-75
2023/07/31 03:51:08;;;;;;;2.63;1.70;;;;;;;16.56;100.00;100175.63;5014257;28;20223;-76
2023/07/31 03:53:33;;;;;;;3.43;1.80;;;;;;;16.56;100.00;100175.63;5013617;28;20192;-76
2023/07/31 03:55:58;;;;;;;2.33;1.70;;;;;;;16.56;100.00;100178.25;5015967;28;20339;-75
2023/07/31 03:58:24;;;;;;;1.60;1.40;;;;;;;16.56;100.00;100184.31;5014234;28;20183;-76
2023/07/31 04:00:49;;;;;;;2.83;1.80;;;;;;;16.59;99.86;100188.56;5011170;28;20200;-75
2023/07/31 04:03:14;;;;;;;2.20;2.00;;;;;;;16.57;99.91;100185.16;5011675;28;20214;-76
2023/07/31 04:05:40;;;;;;;4.30;2.10;;;;;;;16.59;99.70;100188.56;5014190;28;21073;-76
2023/07/31 04:08:05;;;;;;;3.87;2.23;;;;;;;16.58;99.90;100185.13;5010601;28;20550;-77
2023/07/31 04:10:33;;;;;;;3.20;2.00;;;;;;;16.58;99.64;100182.50;5011553;28;20191;-76
2023/07/31 04:13:01;;;;;;;3.90;2.20;;;;;;;16.59;100.00;100186.81;5011327;28;20918;-76
2023/07/31 04:15:26;;;;;;;3.83;2.20;;;;;;;16.61;100.00;100178.91;5013075;28;20254;-75
2023/07/31 04:17:51;;;;;;;2.70;1.90;;;;;;;16.58;99.93;100179.88;5012425;28;21048;-76
2023/07/31 04:20:17;;;;;;;3.27;2.23;;;;;;;16.59;100.00;100175.50;5011675;28;20202;-76
2023/07/31 04:22:42;;;;;;;3.03;2.00;;;;;;;16.59;100.00;100172.88;5013055;28;20220;-75
2023/07/31 04:25:08;;;;;;;5.17;2.43;;;;;;;16.59;100.00;100173.75;5014449;28;20214;-75
2023/07/31 04:27:33;;;;;;;3.07;2.13;;;;;;;16.59;100.00;100172.88;5015010;28;20196;-75
2023/07/31 04:29:58;;;;;;;2.37;1.90;;;;;;;16.61;100.00;100171.94;5011653;28;20197;-76
2023/07/31 04:32:24;;;;;;;3.40;1.70;;;;;;;16.62;100.00;100178.00;5013474;28;20222;-75
2023/07/31 04:34:49;;;;;;;3.17;2.10;;;;;;;16.65;100.00;100166.59;5012749;28;20184;-75
2023/07/31 04:37:14;;;;;;;4.47;2.30;;;;;;;16.65;100.00;100170.06;5009473;28;20212;-76
2023/07/31 04:39:40;;;;;;;3.30;2.33;;;;;;;16.68;100.00;100166.47;5023664;28;20623;-75
2023/07/31 04:42:05;;;;;;;2.87;1.90;;;;;;;16.69;100.00;100160.34;5027996;28;20215;-75
2023/07/31 04:44:30;;;;;;;3.17;2.20;;;;;;;16.72;100.00;100162.84;5015292;28;20223;-76
2023/07/31 04:46:56;;;;;;;3.13;2.30;;;;;;;16.74;100.00;100163.66;5017269;28;20281;-76
2023/07/31 04:49:22;;;;;;;3.70;2.20;;;;;;;16.79;100.00;100150.41;5009604;28;20223;-75
2023/07/31 04:51:47;;;;;;;2.90;2.27;;;;;;;16.81;99.95;100159.06;5008116;28;20290;-75
2023/07/31 04:54:14;;;;;;;2.70;2.03;;;;;;;16.85;100.00;100152.81;5012957;28;20277;-75
2023/07/31 04:56:40;;;;;;;2.73;2.00;;;;;;;16.92;99.85;100155.16;5031512;28;20188;-76
2023/07/31 04:59:05;;;;;;;2.20;1.83;;;;;;;16.99;99.63;100153.19;5029435;28;20188;-76
2023/07/31 05:01:30;;;;;;;3.83;2.53;;;;;;;17.09;99.03;100158.03;5013382;28;20211;-77
2023/07/31 05:03:56;;;;;;;3.93;2.13;;;;;;;17.16;98.31;100162.16;5013931;28;20216;-77
2023/07/31 05:06:21;;;;;;;2.50;2.00;;;;;;;17.21;97.94;100155.81;5008362;28;21096;-75
2023/07/31 05:08:46;;;;;;;4.47;2.30;;;;;;;17.29;97.48;100150.28;5014471;28;20680;-77
2023/07/31 05:11:12;;;;;;;2.87;2.00;;;;;;;17.35;97.42;100150.03;5013514;28;20220;-77
2023/07/31 05:13:37;;;;;;;3.67;2.23;;;;;;;17.43;96.58;100141.03;5010195;28;20196;-75
2023/07/31 05:16:05;;;;;;;3.53;2.20;;;;;;;17.50;96.55;100148.59;5011905;28;20190;-76
2023/07/31 05:18:30;;;;;;;3.73;2.37;;;;;;;17.64;96.47;100144.56;5015729;28;20786;-74
2023/07/31 05:20:56;;;;;;;2.63;2.10;;;;;;;17.76;95.60;100143.22;5017504;28;20326;-74
2023/07/31 05:23:21;;;;;;;3.60;2.20;;;;;;;17.90;95.56;100143.50;5018302;28;20298;-75
2023/07/31 05:25:46;;;;;;;3.53;2.23;;;;;;;18.11;94.71;100148.75;5019795;28;20216;-75
2023/07/31 05:28:12;;;;;;;2.90;2.00;;;;;;;18.32;93.35;100154.00;5018844;28;21093;-75
2023/07/31 05:30:38;;;;;;;6.20;2.93;;;;;;;18.61;92.15;100144.81;5018309;28;20194;-75
2023/07/31 05:33:03;;;;;;;3.97;1.87;;;;;;;18.92;91.11;100143.44;5014428;28;20233;-76
2023/07/31 05:35:28;;;;;;;4.97;2.40;;;;;;;19.00;90.26;100140.50;5013500;28;20313;-74
2023/07/31 05:37:54;;;;;;;3.67;2.57;;;;;;;19.00;90.63;100145.72;5014327;28;20625;-75
2023/07/31 05:40:19;;;;;;;4.90;2.20;;;;;;;18.89;90.05;100139.19;5033925;28;20309;-74
2023/07/31 05:42:44;;;;;;;3.33;1.93;;;;;;;18.92;90.62;100137.34;5015230;28;20227;-76
2023/07/31 05:45:10;;;;;;;5.97;2.50;;;;;;;18.89;90.33;100126.09;5021673;28;20817;-75
2023/07/31 05:47:35;;;;;;;3.30;1.70;;;;;;;18.97;89.82;100124.94;5018885;28;20280;-76
2023/07/31 05:50:01;;;;;;;3.00;1.90;;;;;;;18.91;89.38;100127.78;5015839;28;20623;-76
2023/07/31 05:52:26;;;;;;;3.03;1.93;;;;;;;18.94;89.13;100128.53;5015267;28;20623;-75
2023/07/31 05:54:52;;;;;;;1.90;1.50;;;;;;;18.99;89.58;100130.91;5016600;28;20248;-76
2023/07/31 05:57:17;;;;;;;4.23;1.87;;;;;;;19.03;89.11;100127.25;5013392;28;20199;-75
2023/07/31 05:59:42;;;;;;;3.43;2.57;;;;;;;19.09;88.93;100132.22;5015331;28;20206;-75
2023/07/31 06:02:08;;;;;;;2.40;2.13;;;;;;;19.10;88.71;100125.19;5014316;28;20289;-75
2023/07/31 06:04:33;;;;;;;4.27;2.10;;;;;;;19.15;88.20;100121.41;5017374;28;20211;-76
2023/07/31 06:06:58;;;;;;;3.57;1.93;;;;;;;19.16;87.56;100112.63;5013504;28;20187;-75
2023/07/31 06:09:24;;;;;;;3.97;2.00;;;;;;;19.36;87.33;100110.81;5017320;28;20744;-76
2023/07/31 06:11:49;;;;;;;5.40;1.90;;;;;;;19.62;87.26;100114.81;5012537;28;20215;-76
2023/07/31 06:14:15;;;;;;;3.07;1.70;;;;;;;19.86;86.26;100113.66;5012346;28;20199;-75
2023/07/31 06:16:41;;;;;;;4.27;1.70;;;;;;;20.05;85.78;100114.41;5014872;28;20206;-75
2023/07/31 06:19:07;;;;;;;2.57;1.77;;;;;;;20.14;85.37;100120.97;5014203;28;20194;-75
2023/07/31 06:21:32;;;;;;;2.50;2.23;;;;;;;20.14;84.81;100118.34;5018715;28;20212;-75
2023/07/31 06:23:58;;;;;;;3.93;2.07;;;;;;;20.11;85.02;100121.16;5015190;28;20219;-75
2023/07/31 06:26:23;;;;;;;3.20;2.20;;;;;;;20.12;84.38;100122.84;5014233;28;20302;-75
2023/07/31 06:28:48;;;;;;;2.20;1.90;;;;;;;19.94;84.53;100122.88;5015316;28;20599;-75
2023/07/31 06:31:14;;;;;;;2.67;1.80;;;;;;;20.05;84.63;100129.34;5015000;28;20302;-75
2023/07/31 06:33:39;;;;;;;3.90;2.20;;;;;;;20.18;84.40;100119.91;5015154;28;20186;-75
2023/07/31 06:36:04;;;;;;;3.03;2.07;;;;;;;20.29;84.46;100121.97;5014337;28;20188;-75
2023/07/31 06:38:30;;;;;;;3.37;1.97;;;;;;;20.43;84.12;100126.50;5012921;28;20242;-74
2023/07/31 06:40:55;;;;;;;3.87;2.10;;;;;;;20.62;83.52;100125.53;5011373;28;20378;-76
2023/07/31 06:43:21;;;;;;;3.10;1.70;;;;;;;20.81;82.50;100122.75;5018095;28;20211;-75
2023/07/31 06:45:48;;;;;;;3.67;2.30;;;;;;;20.66;81.78;100127.06;5016785;28;20200;-74
2023/07/31 06:48:13;;;;;;;3.83;2.17;;;;;;;20.73;81.73;100119.69;5013005;28;20727;-75
2023/07/31 06:50:41;;;;;;;2.87;2.07;;;;;;;20.69;81.30;100127.72;5013800;28;20207;-75
2023/07/31 06:53:07;;;;;;;4.70;2.20;;;;;;;20.51;81.22;100126.09;5012717;28;20578;-75
2023/07/31 06:55:32;;;;;;;3.87;2.20;;;;;;;20.49;81.57;100127.97;5021165;28;20209;-77
2023/07/31 06:57:58;;;;;;;2.93;2.00;;;;;;;20.52;81.87;100125.16;5030563;28;20190;-77
2023/07/31 07:00:23;;;;;;;2.90;2.27;;;;;;;20.44;82.50;100116.84;5021382;28;20195;-75
2023/07/31 07:02:49;;;;;;;4.40;2.30;;;;;;;20.41;81.69;100113.44;5013351;28;20207;-76
2023/07/31 07:05:15;;;;;;;2.13;1.77;;;;;;;20.36;81.90;100120.72;5014085;28;20984;-76
2023/07/31 07:07:41;;;;;;;3.00;2.17;;;;;;;20.15;83.12;100124.47;5013925;28;20199;-75
2023/07/31 07:10:07;;;;;;;3.87;2.00;;;;;;;20.29;82.87;100118.47;5011249;28;20176;-75
2023/07/31 07:12:33;;;;;;;3.43;2.00;;;;;;;20.19;83.51;100121.59;5015168;28;20216;-75
2023/07/31 07:14:59;;;;;;;5.00;1.87;;;;;;;20.39;82.71;100107.41;5013555;28;20192;-74
2023/07/31 07:17:25;;;;;;;3.83;2.20;;;;;;;20.52;83.03;100107.63;5016502;28;20282;-76
2023/07/31 07:19:50;;;;;;;3.40;2.30;;;;;;;20.62;82.79;100096.59;5012777;28;20574;-75
2023/07/31 07:22:16;;;;;;;4.07;2.07;;;;;;;20.75;82.38;100107.31;5016016;28;20207;-75
2023/07/31 07:24:41;;;;;;;2.57;1.77;;;;;;;20.89;82.08;100112.69;5014917;28;20277;-76
2023/07/31 07:27:07;;;;;;;5.47;2.40;;;;;;;20.95;81.47;100108.88;5016875;28;20186;-75
2023/07/31 07:29:34;;;;;;;4.70;1.90;;;;;;;20.93;80.79;100098.44;5014002;28;20189;-76
2023/07/31 07:32:00;;;;;;;4.73;2.13;;;;;;;20.86;81.64;100105.81;5013048;28;20326;-78
2023/07/31 07:34:27;;;;;;;4.17;2.60;;;;;;;20.77;81.40;100102.84;5014797;28;20193;-79
2023/07/31 07:36:52;;;;;;;3.17;2.27;;;;;;;20.66;80.71;100104.22;5013327;28;20200;-76
2023/07/31 07:39:18;;;;;;;3.13;2.40;;;;;;;20.51;80.99;100100.66;5014454;28;20189;-75
2023/07/31 07:41:43;;;;;;;3.53;2.20;;;;;;;20.70;81.19;100091.78;5013036;28;20714;-76
2023/07/31 07:44:08;;;;;;;3.50;2.30;;;;;;;20.62;81.32;100094.84;5015490;28;20298;-76
2023/07/31 07:46:34;;;;;;;5.17;2.13;;;;;;;20.55;80.71;100086.44;5018221;28;20547;-77
2023/07/31 07:48:59;;;;;;;3.97;2.40;;;;;;;20.77;81.24;100089.69;5015536;28;20532;-76
2023/07/31 07:51:25;;;;;;;4.40;2.60;;;;;;;20.87;80.42;100083.00;5013964;28;20208;-76
2023/07/31 07:53:50;;;;;;;4.33;2.17;;;;;;;21.11;80.29;100082.53;5015648;28;20287;-76
2023/07/31 07:56:16;;;;;;;2.57;2.30;;;;;;;21.37;79.65;100077.59;5009585;28;20226;-75
2023/07/31 07:58:41;;;;;;;3.13;2.03;;;;;;;21.65;79.01;100081.28;5015882;28;20191;-74
2023/07/31 08:01:06;;;;;;;3.47;2.27;;;;;;;21.73;79.33;100090.44;5019004;28;20291;-75
2023/07/31 08:03:32;;;;;;;4.63;2.30;;;;;;;21.96;78.27;100097.91;5021668;28;20704;-76
2023/07/31 08:05:58;;;;;;;5.43;2.43;;;;;;;21.93;77.22;100088.41;5014848;28;20211;-75
2023/07/31 08:08:24;;;;;;;3.17;2.30;;;;;;;22.04;77.30;100104.41;5011864;28;20196;-76
2023/07/31 08:10:49;;;;;;;3.73;2.20;;;;;;;21.85;76.90;100096.78;5011152;28;20774;-76
2023/07/31 08:13:14;;;;;;;3.93;2.23;;;;;;;21.81;77.31;100091.75;5011547;28;20196;-75
2023/07/31 08:15:43;;;;;;;3.30;2.00;;;;;;;21.91;77.71;100085.84;5013306;28;20284;-76
2023/07/31 08:18:09;;;;;;;6.07;2.40;;;;;;;22.00;76.99;100094.16;5018007;28;20569;-76
2023/07/31 08:20:35;;;;;;;3.73;2.13;;;;;;;22.02;77.07;100082.56;5017409;28;20275;-75
2023/07/31 08:23:00;;;;;;;4.57;2.40;;;;;;;21.74;76.82;100084.22;5020055;28;20290;-77
2023/07/31 08:25:25;;;;;;;5.13;2.33;;;;;;;21.77;76.88;100086.69;5017785;28;20246;-76
2023/07/31 08:27:52;;;;;;;3.90;2.50;;;;;;;21.89;77.57;100089.53;5017136;28;20275;-77
2023/07/31 08:30:19;;;;;;;3.63;2.33;;;;;;;22.22;77.13;100084.00;5015360;28;20230;-76
2023/07/31 08:32:44;;;;;;;3.07;2.10;;;;;;;22.53;77.21;100076.84;5017159;28;20552;-77
2023/07/31 08:35:10;;;;;;;2.93;2.10;;;;;;;23.00;76.04;100073.94;5016692;28;20681;-76
2023/07/31 08:37:35;;;;;;;4.03;2.30;;;;;;;23.18;74.97;100079.81;5015876;28;20199;-78
2023/07/31 08:40:00;;;;;;;4.37;2.00;;;;;;;23.17;74.63;100078.09;5017446;28;20282;-76
2023/07/31 08:42:29;;;;;;;5.90;2.80;;;;;;;22.86;75.56;100073.97;5018179;28;20215;-77
2023/07/31 08:44:55;;;;;;;3.43;2.23;;;;;;;23.07;75.65;100059.38;5018831;28;20727;-77
2023/07/31 08:47:22;;;;;;;3.43;2.30;;;;;;;23.29;74.89;100053.56;5015385;28;20184;-77
2023/07/31 08:49:48;;;;;;;4.43;2.10;;;;;;;23.25;74.49;100059.16;5019756;28;20218;-77
2023/07/31 08:52:13;;;;;;;3.80;2.10;;;;;;;23.42;74.80;100050.97;5016863;28;20199;-78
2023/07/31 08:54:39;;;;;;;2.63;1.80;;;;;;;23.63;74.76;100053.13;5011239;28;20194;-75
2023/07/31 08:57:07;;;;;;;4.43;2.00;;;;;;;23.47;73.82;100049.81;5024601;28;20180;-77
2023/07/31 08:59:35;;;;;;;4.77;2.27;;;;;;;23.50;73.92;100046.97;5029163;28;20664;-76
2023/07/31 09:02:05;;;;;;;4.50;2.43;;;;;;;23.83;74.48;100042.97;5017064;28;20299;-77
2023/07/31 09:04:31;;;;;;;3.33;2.20;;;;;;;24.10;73.43;100050.00;5017011;28;20210;-76
2023/07/31 09:07:00;;;;;;;4.37;1.90;;;;;;;24.39;73.38;100042.66;5018612;28;20568;-77
2023/07/31 09:09:26;;;;;;;4.33;2.63;;;;;;;24.32;72.20;100039.59;5018034;28;20656;-76
2023/07/31 09:11:52;;;;;;;3.00;1.93;;;;;;;24.49;72.13;100037.56;5024407;28;20241;-76
2023/07/31 09:14:19;;;;;;;6.20;2.63;;;;;;;24.30;72.95;100036.22;5016091;28;20192;-76
2023/07/31 09:16:56;;;;;;;6.33;2.47;;;;;;;24.47;72.51;100037.66;5014128;28;20268;-76
2023/07/31 09:19:30;;;;;;;3.30;2.23;;;;;;;24.48;71.70;100026.13;5014295;28;20191;-77
2023/07/31 09:21:55;;;;;;;3.07;2.00;;;;;;;24.57;71.49;100016.69;5017689;28;20199;-77
2023/07/31 09:24:28;;;;;;;3.97;2.40;;;;;;;24.67;71.19;100022.13;5015391;28;21330;-76
2023/07/31 09:26:58;;;;;;;3.43;2.40;;;;;;;24.51;71.25;100019.78;5017044;28;20188;-76
2023/07/31 09:29:26;;;;;;;4.70;2.73;;;;;;;24.21;71.79;100010.44;5014952;28;20608;-76
2023/07/31 09:31:52;;;;;;;3.33;2.17;;;;;;;24.06;71.97;100004.41;5013360;28;20253;-76
2023/07/31 09:34:18;;;;;;;4.07;2.20;;;;;;;23.68;71.62;100005.25;5019316;28;20196;-77
2023/07/31 09:36:48;;;;;;;3.37;2.57;;;;;;;23.97;71.68;100002.44;5014600;28;20201;-77
2023/07/31 09:39:16;;;;;;;3.73;2.37;;;;;;;24.31;70.65;100005.34;5017337;28;20194;-76
2023/07/31 09:41:52;;;;;;;9.80;2.70;;;;;;;24.02;70.54;100001.16;5017334;28;20219;-75
2023/07/31 09:44:18;;;;;;;6.00;3.17;;;;;;;23.90;71.34;100001.97;5014757;28;20203;-78
2023/07/31 09:46:43;;;;;;;3.37;2.50;;;;;;;24.39;69.63;100002.16;5016415;28;20675;-77
2023/07/31 09:49:11;;;;;;;4.13;2.37;;;;;;;24.41;69.89;99990.50;5013516;28;20250;-76
2023/07/31 09:51:42;;;;;;;3.30;2.30;;;;;;;24.51;69.83;99988.84;5011292;28;20208;-77
2023/07/31 09:54:14;;;;;;;4.23;2.70;;;;;;;24.42;70.58;99994.00;5013446;28;20183;-76
2023/07/31 09:56:47;;;;;;;3.97;2.30;;;;;;;24.53;70.86;100004.63;5021918;28;20188;-77
2023/07/31 09:59:17;;;;;;;4.23;2.50;;;;;;;24.45;69.83;100001.69;5011683;28;20184;-76
2023/07/31 10:01:43;;;;;;;4.50;2.60;;;;;;;24.31;70.20;99998.22;5017436;28;20245;-76
2023/07/31 10:04:10;;;;;;;2.90;2.40;;;;;;;23.85;70.36;99986.44;5015009;28;20300;-76
2023/07/31 10:06:37;;;;;;;5.40;2.67;;;;;;;23.93;72.16;99998.25;5013594;28;20206;-75
2023/07/31 10:09:09;;;;;;;4.43;2.37;;;;;;;23.95;71.52;99986.66;5016809;28;20194;-76
2023/07/31 10:11:51;;;;;;;4.50;2.63;;;;;;;23.79;72.11;99991.31;5015090;28;20204;-76
2023/07/31 10:14:20;;;;;;;3.73;2.33;;;;;;;23.73;71.57;99974.94;5015940;28;20201;-76
2023/07/31 10:16:47;;;;;;;4.60;2.70;;;;;;;23.80;72.02;99980.63;5018774;28;20229;-78
2023/07/31 10:19:12;;;;;;;4.50;2.30;;;;;;;23.71;72.49;99979.47;5013227;28;20179;-76
2023/07/31 10:21:37;;;;;;;3.77;2.43;;;;;;;23.93;72.73;99983.28;5015143;28;20602;-78
2023/07/31 10:24:04;;;;;;;3.20;2.40;;;;;;;24.46;71.76;99982.22;5012987;28;20315;-78
2023/07/31 10:26:32;;;;;;;2.73;2.10;;;;;;;24.78;71.42;99981.69;5012655;28;20283;-77
2023/07/31 10:28:58;;;;;;;4.80;3.13;;;;;;;24.76;71.15;99976.53;5015495;28;20196;-75
2023/07/31 10:31:24;;;;;;;3.17;2.60;;;;;;;24.79;70.28;99986.91;5015619;28;20211;-76
2023/07/31 10:33:51;;;;;;;4.17;2.70;;;;;;;24.68;70.72;99989.44;5016295;28;20266;-75
2023/07/31 10:36:19;;;;;;;3.30;2.50;;;;;;;24.90;70.33;99979.97;5015598;28;20337;-77
2023/07/31 10:38:45;;;;;;;3.73;2.80;;;;;;;25.12;69.75;99987.16;5012700;28;20195;-76
2023/07/31 10:41:11;;;;;;;4.10;2.43;;;;;;;25.25;69.76;99979.97;5016552;28;20207;-76
2023/07/31 10:43:39;;;;;;;4.83;3.10;;;;;;;25.36;70.51;99986.22;5010913;28;20292;-75
2023/07/31 10:46:11;;;;;;;4.57;3.17;;;;;;;24.92;70.83;99989.47;5016357;28;20195;-76
2023/07/31 10:48:38;;;;;;;5.47;2.97;;;;;;;24.96;70.90;99987.44;5012638;28;20279;-76
2023/07/31 10:51:09;;;;;;;3.43;2.60;;;;;;;25.13;71.08;99986.19;5017976;28;20200;-75
2023/07/31 10:53:34;;;;;;;3.37;3.03;;;;;;;25.20;70.44;99991.88;5015341;28;20199;-76
2023/07/31 10:56:02;;;;;;;4.43;2.70;;;;;;;25.02;70.05;99983.50;5024020;28;20195;-78
2023/07/31 10:58:27;;;;;;;7.37;3.33;;;;;;;24.84;69.90;99989.19;5045137;28;20216;-75
2023/07/31 11:00:58;;;;;;;4.40;2.60;;;;;;;25.08;69.94;99986.53;5020466;28;20191;-76
2023/07/31 11:03:40;;;;;;;5.40;3.10;;;;;;;24.74;70.58;99975.81;5013328;28;20742;-79
2023/07/31 11:06:06;;;;;;;5.57;3.53;;;;;;;24.81;70.42;99979.66;5014625;28;20184;-75
2023/07/31 11:08:42;;;;;;;5.33;2.40;;;;;;;25.30;68.77;99981.41;5015610;28;20210;-75
2023/07/31 11:11:10;;;;;;;5.13;2.57;;;;;;;25.21;69.44;99975.84;5014969;28;20257;-77
2023/07/31 11:13:41;;;;;;;2.77;2.30;;;;;;;25.50;68.75;99970.16;5013545;28;20187;-77
2023/07/31 11:16:07;;;;;;;3.63;2.53;;;;;;;24.77;69.26;99966.78;5012550;28;20188;-76
2023/07/31 11:18:32;;;;;;;3.93;2.50;;;;;;;25.28;68.82;99962.97;5017148;28;21059;-76